createdAt,value
2022-08-27T00:00:17.908Z,13.30
2022-08-27T00:03:22.722Z,19.00
2022-08-27T00:06:30.221Z,14.03
2022-08-27T00:09:36.770Z,15.63
2022-08-27T00:12:43.361Z,16.97
2022-08-27T00:15:43.147Z,12.45
2022-08-27T00:18:49.966Z,22.07
2022-08-27T00:21:57.133Z,14.73
2022-08-27T00:25:04.199Z,14.30
2022-08-27T00:28:04.236Z,12.98
2022-08-27T00:30:56.187Z,21.15
2022-08-27T00:34:00.891Z,20.08
2022-08-27T00:37:05.786Z,12.20
2022-08-27T00:40:10.950Z,18.82
2022-08-27T00:43:17.167Z,21.37
2022-08-27T00:46:39.024Z,20.62
2022-08-27T00:50:13.782Z,13.30
2022-08-27T00:53:29.724Z,12.20
2022-08-27T00:56:39.296Z,19.00
2022-08-27T00:59:45.553Z,22.25
2022-08-27T01:02:53.098Z,14.75
2022-08-27T01:05:52.728Z,12.80
2022-08-27T01:09:06.771Z,30.48
2022-08-27T01:12:12.476Z,18.12
2022-08-27T01:15:23.076Z,11.73
2022-08-27T01:18:29.308Z,22.10
2022-08-27T01:21:42.788Z,26.85
2022-08-27T01:24:59.753Z,27.58
2022-08-27T01:28:07.704Z,20.27
2022-08-27T01:31:12.893Z,24.90
2022-08-27T01:34:19.677Z,15.53
2022-08-27T01:37:25.482Z,25.80
2022-08-27T01:40:33.070Z,20.43
2022-08-27T01:43:39.939Z,22.58
2022-08-27T01:46:46.466Z,34.58
2022-08-27T01:49:52.126Z,26.93
2022-08-27T01:52:57.953Z,24.35
2022-08-27T01:56:03.438Z,34.90
2022-08-27T01:59:10.357Z,28.42
2022-08-27T02:02:15.666Z,23.12
2022-08-27T02:05:22.238Z,19.40
2022-08-27T02:08:29.367Z,32.25
2022-08-27T02:11:28.058Z,30.45
2022-08-27T02:14:33.597Z,33.00
2022-08-27T02:17:39.167Z,33.80
2022-08-27T02:20:45.174Z,38.73
2022-08-27T02:23:51.956Z,25.10
2022-08-27T02:26:59.683Z,32.35
2022-08-27T02:30:05.281Z,23.27
2022-08-27T02:33:04.883Z,38.38
2022-08-27T02:39:14.159Z,40.35
2022-08-27T02:42:20.401Z,31.23
2022-08-27T02:45:27.272Z,36.83
2022-08-27T02:48:32.839Z,31.48
2022-08-27T02:51:38.479Z,30.35
2022-08-27T02:54:44.824Z,27.65
2022-08-27T02:57:51.387Z,40.15
2022-08-27T03:00:58.435Z,27.75
2022-08-27T03:04:04.064Z,28.35
2022-08-27T03:07:18.632Z,33.02
2022-08-27T03:10:18.187Z,44.70
2022-08-27T03:13:23.924Z,32.73
2022-08-27T03:16:30.443Z,30.27
2022-08-27T03:19:35.075Z,46.28
2022-08-27T03:22:42.048Z,22.73
2022-08-27T03:25:48.586Z,32.10
2022-08-27T03:28:55.340Z,31.93
2022-08-27T03:32:01.099Z,20.48
2022-08-27T03:35:07.631Z,35.25
2022-08-27T03:38:13.809Z,28.32
2022-08-27T03:41:20.526Z,24.80
2022-08-27T03:44:26.220Z,25.45
2022-08-27T03:47:32.976Z,28.02
2022-08-27T03:50:39.065Z,28.23
2022-08-27T03:53:44.141Z,37.75
2022-08-27T03:56:49.544Z,37.03
2022-08-27T03:59:56.492Z,29.02
2022-08-27T04:03:06.924Z,33.40
2022-08-27T04:06:12.716Z,36.08
2022-08-27T04:09:18.098Z,34.10
2022-08-27T04:12:22.903Z,28.60
2022-08-27T04:15:29.142Z,26.97
2022-08-27T04:18:37.723Z,22.85
2022-08-27T04:21:44.104Z,32.98
2022-08-27T04:24:51.469Z,33.80
2022-08-27T04:27:57.823Z,29.70
2022-08-27T04:31:03.589Z,24.20
2022-08-27T04:34:09.830Z,31.23
2022-08-27T04:37:15.126Z,34.10
2022-08-27T04:40:23.115Z,17.32
2022-08-27T04:43:28.046Z,22.60
2022-08-27T04:46:43.197Z,30.10
2022-08-27T04:49:49.813Z,24.85
2022-08-27T04:52:55.970Z,22.90
2022-08-27T04:56:03.172Z,17.75
2022-08-27T04:59:10.480Z,32.23
2022-08-27T05:02:17.889Z,21.30
2022-08-27T05:05:24.280Z,20.27
2022-08-27T05:08:30.334Z,31.97
2022-08-27T05:11:39.479Z,32.40
2022-08-27T05:14:45.052Z,28.67
2022-08-27T05:17:51.079Z,24.15
2022-08-27T05:21:00.722Z,31.30
2022-08-27T05:24:06.105Z,20.53
2022-08-27T05:27:13.083Z,26.73
2022-08-27T05:30:19.608Z,14.40
2022-08-27T05:33:28.327Z,29.37
2022-08-27T05:36:37.101Z,25.72
2022-08-27T05:39:36.377Z,18.75
2022-08-27T05:42:42.641Z,19.70
2022-08-27T05:45:57.617Z,19.48
2022-08-27T05:49:04.610Z,26.05
2022-08-27T05:52:09.553Z,12.15
2022-08-27T05:55:15.471Z,14.35
2022-08-27T05:58:23.284Z,16.17
2022-08-27T06:01:29.862Z,15.40
2022-08-27T06:04:35.481Z,9.30
2022-08-27T06:07:42.755Z,18.42
2022-08-27T06:10:49.748Z,15.03
2022-08-27T06:13:56.115Z,19.25
2022-08-27T06:17:02.034Z,14.35
2022-08-27T06:20:07.666Z,13.53
2022-08-27T06:23:13.619Z,18.42
2022-08-27T06:26:21.672Z,16.82
2022-08-27T06:29:28.378Z,18.07
2022-08-27T06:32:33.637Z,12.07
2022-08-27T06:35:39.759Z,13.78
2022-08-27T06:38:44.863Z,14.15
2022-08-27T06:41:50.788Z,16.40
2022-08-27T06:44:57.109Z,17.70
2022-08-27T06:48:03.136Z,7.22
2022-08-27T06:51:09.868Z,12.90
2022-08-27T06:54:18.772Z,15.93
2022-08-27T06:57:24.037Z,12.60
2022-08-27T07:00:29.739Z,14.33
2022-08-27T07:03:35.684Z,9.93
2022-08-27T07:06:41.690Z,10.32
2022-08-27T07:09:48.508Z,15.63
2022-08-27T07:12:55.080Z,18.02
2022-08-27T07:16:01.109Z,12.75
2022-08-27T07:19:10.003Z,10.23
2022-08-27T07:22:17.545Z,20.30
2022-08-27T07:25:26.289Z,17.62
2022-08-27T07:28:31.601Z,11.15
2022-08-27T07:31:37.855Z,18.20
2022-08-27T07:34:43.258Z,12.50
2022-08-27T07:37:50.655Z,14.80
2022-08-27T07:40:59.085Z,18.30
2022-08-27T07:44:23.239Z,13.43
2022-08-27T07:47:29.498Z,7.22
2022-08-27T07:50:36.240Z,11.75
2022-08-27T07:53:44.059Z,13.15
2022-08-27T07:56:55.475Z,19.87
2022-08-27T07:59:35.820Z,9.70
2022-08-27T08:05:24.040Z,19.65
2022-08-27T08:08:30.169Z,25.40
2022-08-27T08:11:35.870Z,23.00
2022-08-27T08:14:41.810Z,20.45
2022-08-27T08:17:49.551Z,17.35
2022-08-27T08:20:58.523Z,17.32
2022-08-27T08:24:03.995Z,11.57
2022-08-27T08:27:07.115Z,11.95
2022-08-27T08:30:10.117Z,13.05
2022-08-27T08:33:17.071Z,16.17
2022-08-27T08:36:27.796Z,20.35
2022-08-27T08:39:35.275Z,19.37
2022-08-27T08:43:00.265Z,22.40
2022-08-27T08:46:05.902Z,17.17
2022-08-27T08:49:15.491Z,16.12
2022-08-27T08:52:31.370Z,15.53
2022-08-27T08:56:01.253Z,11.45
2022-08-27T08:59:26.251Z,8.13
2022-08-27T09:02:31.434Z,11.97
2022-08-27T09:05:38.202Z,15.08
2022-08-27T09:08:56.043Z,15.20
2022-08-27T09:12:21.669Z,11.18
2022-08-27T09:15:36.952Z,16.17
2022-08-27T09:18:42.904Z,15.10
2022-08-27T09:22:13.170Z,15.03
2022-08-27T09:25:36.821Z,19.23
2022-08-27T09:28:54.763Z,20.05
2022-08-27T09:32:14.005Z,18.87
2022-08-27T09:35:24.086Z,21.33
2022-08-27T09:41:46.442Z,16.62
2022-08-27T09:45:00.327Z,16.77
2022-08-27T09:48:11.990Z,20.57
2022-08-27T09:51:30.572Z,24.77
2022-08-27T09:55:01.853Z,22.93
2022-08-27T09:58:09.426Z,12.93
2022-08-27T10:01:20.612Z,17.90
2022-08-27T10:04:29.923Z,15.48
2022-08-27T10:08:00.514Z,18.73
2022-08-27T10:11:16.399Z,21.00
2022-08-27T10:14:40.135Z,31.15
2022-08-27T10:17:58.973Z,15.72
2022-08-27T10:21:30.588Z,16.75
2022-08-27T10:24:53.892Z,23.40
2022-08-27T10:28:20.050Z,20.15
2022-08-27T10:31:34.076Z,25.12
2022-08-27T10:34:58.001Z,20.62
2022-08-27T10:38:30.598Z,30.15
2022-08-27T10:41:45.401Z,27.45
2022-08-27T10:45:07.955Z,20.05
2022-08-27T10:48:45.822Z,23.62
2022-08-27T10:51:57.420Z,30.95
2022-08-27T10:55:17.970Z,20.62
2022-08-27T10:58:50.759Z,23.02
2022-08-27T11:02:04.327Z,19.37
2022-08-27T11:05:14.474Z,30.25
2022-08-27T11:08:43.432Z,24.05
2022-08-27T11:12:13.737Z,28.80
2022-08-27T11:15:20.971Z,22.55
2022-08-27T11:18:46.742Z,40.95
2022-08-27T11:21:58.659Z,20.00
2022-08-27T11:25:38.587Z,22.27
2022-08-27T11:28:56.932Z,54.90
2022-08-27T11:32:16.896Z,18.80
2022-08-27T11:35:58.320Z,26.62
2022-08-27T11:39:11.941Z,32.33
2022-08-27T11:42:43.147Z,31.75
2022-08-27T11:45:52.399Z,22.17
2022-08-27T11:49:01.474Z,32.13
2022-08-27T11:52:19.360Z,17.02
2022-08-27T11:55:38.209Z,31.07
2022-08-27T11:58:53.490Z,34.83
2022-08-27T12:01:52.074Z,39.05
2022-08-27T12:04:57.843Z,29.65
2022-08-27T12:08:07.132Z,28.67
2022-08-27T12:11:48.656Z,37.33
2022-08-27T12:15:06.400Z,37.88
2022-08-27T12:18:31.951Z,18.67
2022-08-27T12:21:42.553Z,40.17
2022-08-27T12:25:10.267Z,42.17
2022-08-27T12:28:18.941Z,24.35
2022-08-27T12:31:24.678Z,37.97
2022-08-27T12:34:42.898Z,38.90
2022-08-27T12:38:13.933Z,40.65
2022-08-27T12:41:21.300Z,32.80
2022-08-27T12:44:43.442Z,38.92
2022-08-27T12:47:53.517Z,42.40
2022-08-27T12:50:58.145Z,42.40
2022-08-27T12:54:58.528Z,49.10
2022-08-27T12:58:47.380Z,34.73
2022-08-27T13:02:13.007Z,40.40
2022-08-27T13:05:19.942Z,45.15
2022-08-27T13:08:39.808Z,36.90
2022-08-27T13:11:48.432Z,32.15
2022-08-27T13:14:57.222Z,32.88
2022-08-27T13:18:02.381Z,33.15
2022-08-27T13:21:18.493Z,39.18
2022-08-27T13:24:25.471Z,37.15
2022-08-27T13:27:30.248Z,35.50
2022-08-27T13:30:37.294Z,47.13
2022-08-27T13:33:52.745Z,31.00
2022-08-27T13:37:17.864Z,53.63
2022-08-27T13:40:23.935Z,47.53
2022-08-27T13:43:30.542Z,54.48
2022-08-27T13:46:45.511Z,34.78
2022-08-27T13:49:52.524Z,44.35
2022-08-27T13:53:15.782Z,42.00
2022-08-27T13:56:21.610Z,32.93
2022-08-27T13:59:35.048Z,43.30
2022-08-27T14:02:55.407Z,45.35
2022-08-27T14:05:58.997Z,45.20
2022-08-27T14:09:05.101Z,52.88
2022-08-27T14:12:19.305Z,47.58
2022-08-27T14:15:45.896Z,38.20
2022-08-27T14:18:59.348Z,48.73
2022-08-27T14:22:00.358Z,46.35
2022-08-27T14:25:06.445Z,52.48
2022-08-27T14:28:12.041Z,31.10
2022-08-27T14:31:19.388Z,38.05
2022-08-27T14:34:25.143Z,44.53
2022-08-27T14:37:30.163Z,45.70
2022-08-27T14:40:29.621Z,40.90
2022-08-27T14:43:35.659Z,43.80
2022-08-27T14:46:46.712Z,44.93
2022-08-27T14:49:56.563Z,39.60
2022-08-27T14:53:02.847Z,35.90
2022-08-27T14:56:12.278Z,34.95
2022-08-27T14:59:18.186Z,47.13
2022-08-27T15:02:26.738Z,37.25
2022-08-27T15:05:33.341Z,55.25
2022-08-27T15:08:40.071Z,41.20
2022-08-27T15:11:49.470Z,62.40
2022-08-27T15:14:56.166Z,50.60
2022-08-27T15:18:01.812Z,46.90
2022-08-27T15:21:08.651Z,39.30
2022-08-27T15:24:20.750Z,44.50
2022-08-27T15:27:32.161Z,40.28
2022-08-27T15:30:39.153Z,36.08
2022-08-27T15:33:44.569Z,50.78
2022-08-27T15:36:50.955Z,59.98
2022-08-27T15:39:56.361Z,57.15
2022-08-27T15:43:07.450Z,41.88
2022-08-27T15:46:12.659Z,27.90
2022-08-27T15:49:19.977Z,34.30
2022-08-27T15:52:33.461Z,29.27
2022-08-27T15:55:37.155Z,39.65
2022-08-27T15:58:44.180Z,32.48
2022-08-27T16:01:50.454Z,23.00
2022-08-27T16:04:56.715Z,29.87
2022-08-27T16:08:01.647Z,28.52
2022-08-27T16:11:07.777Z,36.35
2022-08-27T16:14:14.727Z,33.30
2022-08-27T16:17:21.639Z,25.72
2022-08-27T16:20:31.655Z,24.60
2022-08-27T16:23:37.985Z,24.47
2022-08-27T16:26:42.799Z,18.48
2022-08-27T16:29:47.200Z,22.73
2022-08-27T16:32:52.518Z,20.48
2022-08-27T16:35:58.467Z,20.60
2022-08-27T16:39:04.648Z,23.50
2022-08-27T16:42:10.054Z,16.40
2022-08-27T16:45:15.336Z,24.82
2022-08-27T16:48:37.991Z,20.00
2022-08-27T16:51:45.590Z,19.05
2022-08-27T16:54:50.628Z,25.05
2022-08-27T16:57:56.366Z,26.68
2022-08-27T17:01:05.999Z,25.45
2022-08-27T17:04:21.550Z,14.25
2022-08-27T17:10:28.080Z,19.42
2022-08-27T17:13:39.472Z,27.65
2022-08-27T17:16:49.661Z,24.50
2022-08-27T17:19:56.222Z,15.63
2022-08-27T17:23:03.088Z,13.03
2022-08-27T17:26:09.747Z,21.02
2022-08-27T17:29:16.351Z,20.77
2022-08-27T17:32:22.613Z,21.02
2022-08-27T17:35:28.932Z,29.72
2022-08-27T17:38:36.575Z,28.92
2022-08-27T17:41:51.051Z,17.17
2022-08-27T17:44:57.035Z,22.58
2022-08-27T17:48:06.117Z,18.62
2022-08-27T17:51:11.664Z,21.23
2022-08-27T17:54:18.579Z,23.00
2022-08-27T17:57:45.167Z,18.32
2022-08-27T18:00:53.537Z,29.32
2022-08-27T18:04:00.239Z,22.25
2022-08-27T18:07:05.872Z,22.45
2022-08-27T18:10:12.613Z,30.40
2022-08-27T18:13:21.838Z,22.75
2022-08-27T18:19:32.732Z,25.55
2022-08-27T18:22:40.985Z,17.45
2022-08-27T18:25:39.222Z,23.42
2022-08-27T18:28:26.646Z,22.60
2022-08-27T18:31:19.811Z,25.43
2022-08-27T18:34:18.744Z,31.87
2022-08-27T18:37:14.640Z,24.67
2022-08-27T18:40:21.666Z,22.10
2022-08-27T18:43:28.407Z,23.38
2022-08-27T18:46:33.596Z,25.80
2022-08-27T18:49:41.420Z,39.67
2022-08-27T18:52:46.953Z,39.83
2022-08-27T18:55:53.322Z,17.65
2022-08-27T18:58:59.815Z,24.40
2022-08-27T19:02:05.567Z,29.40
2022-08-27T19:05:12.339Z,20.48
2022-08-27T19:08:12.549Z,29.98
2022-08-27T19:11:19.194Z,28.62
2022-08-27T19:14:24.837Z,25.80
2022-08-27T19:17:41.949Z,31.00
2022-08-27T19:20:48.696Z,35.08
2022-08-27T19:23:56.571Z,32.98
2022-08-27T19:27:04.006Z,31.27
2022-08-27T19:30:10.575Z,24.47
2022-08-27T19:33:15.855Z,29.48
2022-08-27T19:36:21.718Z,33.45
2022-08-27T19:39:27.367Z,37.55
2022-08-27T19:42:32.812Z,35.50
2022-08-27T19:45:39.862Z,38.58
2022-08-27T19:48:44.885Z,25.32
2022-08-27T19:51:50.609Z,40.10
2022-08-27T19:55:13.112Z,31.10
2022-08-27T19:57:57.146Z,30.15
2022-08-27T20:01:03.408Z,42.45
2022-08-27T20:04:09.298Z,39.45
2022-08-27T20:07:15.152Z,45.45
2022-08-27T20:10:21.633Z,33.33
2022-08-27T20:13:31.070Z,31.62
2022-08-27T20:16:26.669Z,26.12
2022-08-27T20:19:34.102Z,33.20
2022-08-27T20:22:40.065Z,25.97
2022-08-27T20:25:49.532Z,32.42
2022-08-27T20:28:55.219Z,20.95
2022-08-27T20:32:00.913Z,29.82
2022-08-27T20:35:06.316Z,26.80
2022-08-27T20:38:13.172Z,27.20
2022-08-27T20:41:18.581Z,21.25
2022-08-27T20:44:24.514Z,28.15
2022-08-27T20:47:31.125Z,34.13
2022-08-27T20:50:36.486Z,22.77
2022-08-27T20:53:42.110Z,32.80
2022-08-27T20:56:52.826Z,28.77
2022-08-27T21:00:15.267Z,32.58
2022-08-27T21:03:21.644Z,27.82
2022-08-27T21:06:30.029Z,25.35
2022-08-27T21:09:35.353Z,34.58
2022-08-27T21:12:43.031Z,24.80
2022-08-27T21:15:49.794Z,25.30
2022-08-27T21:19:00.912Z,32.05
2022-08-27T21:22:07.611Z,35.20
2022-08-27T21:25:14.338Z,25.97
2022-08-27T21:28:21.246Z,24.85
2022-08-27T21:31:27.355Z,27.95
2022-08-27T21:34:35.520Z,26.55
2022-08-27T21:37:40.287Z,20.85
2022-08-27T21:40:46.318Z,25.27
2022-08-27T21:43:45.918Z,22.55
2022-08-27T21:46:51.905Z,32.25
2022-08-27T21:49:57.996Z,29.15
2022-08-27T21:53:03.215Z,24.50
2022-08-27T21:56:09.223Z,29.27
2022-08-27T21:59:16.554Z,24.65
2022-08-27T22:02:39.243Z,36.40
2022-08-27T22:05:31.597Z,24.18
2022-08-27T22:08:36.613Z,26.00
2022-08-27T22:11:42.669Z,20.48
2022-08-27T22:14:50.202Z,30.72
2022-08-27T22:17:56.355Z,27.65
2022-08-27T22:21:02.925Z,34.53
2022-08-27T22:24:09.407Z,32.98
2022-08-27T22:27:14.865Z,43.25
2022-08-27T22:30:20.512Z,33.08
2022-08-27T22:33:26.176Z,37.90
2022-08-27T22:36:30.924Z,38.42
2022-08-27T22:39:36.004Z,44.15
2022-08-27T22:42:41.437Z,37.58
2022-08-27T22:45:47.993Z,34.20
2022-08-27T22:48:54.426Z,26.55
2022-08-27T22:52:01.108Z,30.97
2022-08-27T22:55:07.257Z,46.13
2022-08-27T22:58:05.748Z,31.42
2022-08-27T23:01:12.117Z,38.60
2022-08-27T23:04:18.810Z,29.77
2022-08-27T23:07:24.028Z,30.48
2022-08-27T23:10:32.047Z,41.70
2022-08-27T23:13:38.778Z,27.62
2022-08-27T23:16:44.398Z,21.52
2022-08-27T23:19:50.947Z,24.92
2022-08-27T23:22:51.975Z,31.07
2022-08-27T23:26:03.168Z,27.10
2022-08-27T23:29:09.193Z,24.85
2022-08-27T23:32:13.976Z,31.17
2022-08-27T23:35:21.837Z,29.27
2022-08-27T23:38:29.343Z,37.65
2022-08-27T23:41:35.538Z,47.93
2022-08-27T23:44:42.463Z,23.38
2022-08-27T23:47:48.114Z,32.53
2022-08-27T23:50:54.015Z,43.30
2022-08-27T23:54:00.810Z,32.45
2022-08-27T23:57:06.397Z,30.02
